77.0°F
Current conditions from King Hill
Updated every 5 minutes
 
  Saturday July 26, 2014

Station Historical Data
Daily Summary for August 22, 2011 Units:  Metric    English   Both
« Previous Day
Next Day »
Daily Weekly Monthly Yearly Custom
  High: Low: Average:
Temperature: 22.8 °C 11.7 °C 16.8 °C
Dew Point: 18.1 °C 9.8 °C 12.4 °C
Humidity: 96% 54% 77%
Wind Speed: 17.7km/h 1.6km/h 7.9km/h
Wind Gust: 35.4km/h - -
Wind- - West
Pressure: 1010.7 hPa 1001.6 hPa -
Precipitation: 3.6 mm    
Historical Graphs
 
 
Tabular Data for August 22, 2011
Time Temperature Dew Point Pressure Wind Wind Speed Wind Gust Humidity Daily Rainfall
00:05 18.7 °C 18.1 °C 1001.9 hPa SW 8 km/h 20.9 km/h 96% 0 mm
00:09 18.7 °C 18 °C 1001.9 hPa SW 9.7 km/h 20.9 km/h 96% 0 mm
00:15 18.6 °C 17.8 °C 1001.6 hPa SSW 4.8 km/h 22.5 km/h 95% 0 mm
00:20 18.6 °C 17.7 °C 1001.9 hPa SW 11.3 km/h 22.5 km/h 95% 0 mm
00:24 18.5 °C 17.7 °C 1001.9 hPa SSW 4.8 km/h 17.7 km/h 95% 0 mm
00:30 18.4 °C 17.6 °C 1001.9 hPa WSW 3.2 km/h 14.5 km/h 95% 0 mm
00:34 18.3 °C 17.5 °C 1001.9 hPa WSW 4.8 km/h 14.5 km/h 95% 0 mm
00:40 18.3 °C 17.4 °C 1001.9 hPa WSW 4.8 km/h 14.5 km/h 95% 0 mm
00:44 18.2 °C 17.4 °C 1001.9 hPa SW 6.4 km/h 14.5 km/h 95% 0 mm
00:50 18.2 °C 17.3 °C 1002.3 hPa SW 4.8 km/h 14.5 km/h 95% 0 mm
00:55 18.2 °C 17.2 °C 1002.3 hPa West 3.2 km/h 14.5 km/h 94% 0 mm
00:59 18.1 °C 17.1 °C 1002.6 hPa SW 4.8 km/h 12.9 km/h 94% 0 mm
01:05 18.1 °C 17.1 °C 1002.6 hPa SW 8 km/h 12.9 km/h 94% 0 mm
01:09 17.9 °C 16.9 °C 1002.6 hPa WSW 3.2 km/h 14.5 km/h 94% 0 mm
01:14 17.8 °C 16.8 °C 1002.6 hPa WSW 4.8 km/h 14.5 km/h 94% 0 mm
01:19 17.7 °C 16.6 °C 1002.3 hPa WSW 6.4 km/h 12.9 km/h 93% 0 mm
01:25 17.6 °C 16.3 °C 1002.3 hPa WSW 6.4 km/h 16.1 km/h 92% 0 mm
01:29 17.4 °C 15.9 °C 1002.3 hPa WSW 8 km/h 19.3 km/h 91% 0 mm
01:35 17.4 °C 15.7 °C 1002.3 hPa West 9.7 km/h 20.9 km/h 90% 0 mm
01:39 17.3 °C 15.2 °C 1002.3 hPa WNW 6.4 km/h 20.9 km/h 87% 0 mm
01:45 17.3 °C 15.1 °C 1002.6 hPa WNW 9.7 km/h 17.7 km/h 87% 0 mm
01:49 17.2 °C 15.1 °C 1002.6 hPa WNW 6.4 km/h 14.5 km/h 87% 0 mm
01:55 17.2 °C 14.8 °C 1002.3 hPa West 8 km/h 16.1 km/h 86% 0 mm
02:00 17.1 °C 14.6 °C 1002.3 hPa West 6.4 km/h 16.1 km/h 85% 0 mm
02:04 17.1 °C 14.5 °C 1002.3 hPa WNW 6.4 km/h 14.5 km/h 85% 0 mm
02:09 17 °C 14.3 °C 1002.3 hPa West 8 km/h 22.5 km/h 84% 0 mm
02:15 17.1 °C 13.9 °C 1002.3 hPa WNW 11.3 km/h 24.1 km/h 82% 0 mm
02:19 17 °C 13.9 °C 1002.3 hPa West 11.3 km/h 24.1 km/h 82% 0 mm
02:25 17 °C 13.7 °C 1002.3 hPa West 11.3 km/h 24.1 km/h 81% 0 mm
02:30 16.9 °C 13.7 °C 1002.6 hPa West 6.4 km/h 22.5 km/h 81% 0 mm
02:35 16.8 °C 13.6 °C 1002.6 hPa WNW 12.9 km/h 29 km/h 81% 0 mm
02:39 16.8 °C 13.5 °C 1002.6 hPa WNW 9.7 km/h 29 km/h 81% 0 mm
02:45 16.7 °C 13.3 °C 1002.6 hPa WNW 11.3 km/h 29 km/h 80% 0 mm
02:49 16.6 °C 13.2 °C 1002.6 hPa WNW 8 km/h 29 km/h 80% 0 mm
02:54 16.5 °C 13.1 °C 1002.6 hPa West 3.2 km/h 19.3 km/h 80% 0 mm
02:59 16.4 °C 12.9 °C 1002.6 hPa WNW 3.2 km/h 22.5 km/h 80% 0 mm
03:04 16.2 °C 12.8 °C 1002.6 hPa West 4.8 km/h 22.5 km/h 80% 0 mm
03:10 16.1 °C 12.6 °C 1002.9 hPa WNW 9.7 km/h 22.5 km/h 80% 0 mm
03:14 16 °C 12.6 °C 1002.9 hPa West 8 km/h 22.5 km/h 80% 0 mm
03:19 15.9 °C 12.5 °C 1002.9 hPa West 3.2 km/h 19.3 km/h 80% 0 mm
03:24 15.9 °C 12.5 °C 1002.9 hPa WSW 11.3 km/h 24.1 km/h 80% 0 mm
03:30 15.9 °C 12.3 °C 1002.9 hPa West 9.7 km/h 24.1 km/h 79% 0 mm
03:35 15.8 °C 12.4 °C 1002.9 hPa WNW 9.7 km/h 16.1 km/h 80% 0 mm
03:39 15.8 °C 12.3 °C 1002.9 hPa West 4.8 km/h 20.9 km/h 80% 0 mm
03:44 15.7 °C 12.3 °C 1002.9 hPa West 4.8 km/h 20.9 km/h 80% 0 mm
03:50 15.7 °C 12.4 °C 1002.9 hPa West 3.2 km/h 20.9 km/h 81% 0 mm
03:54 15.6 °C 12.4 °C 1002.9 hPa WNW 3.2 km/h 16.1 km/h 81% 0 mm
04:00 15.7 °C 12.4 °C 1003.3 hPa West 8 km/h 24.1 km/h 81% 0 mm
04:04 15.7 °C 12.3 °C 1003.3 hPa West 3.2 km/h 24.1 km/h 80% 0 mm
04:10 15.7 °C 12.4 °C 1002.9 hPa West 1.6 km/h 14.5 km/h 81% 0 mm
04:14 15.7 °C 12.2 °C 1003.3 hPa West 4.8 km/h 12.9 km/h 80% 0 mm
04:20 15.7 °C 12.2 °C 1003.3 hPa West 8 km/h 19.3 km/h 80% 0 mm
04:24 15.7 °C 12.3 °C 1002.9 hPa WSW 3.2 km/h 19.3 km/h 80% 0 mm
04:30 15.7 °C 12.1 °C 1002.9 hPa West 6.4 km/h 17.7 km/h 79% 0 mm
04:40 15.7 °C 12.1 °C 1002.9 hPa WNW 4.8 km/h 12.9 km/h 79% 0 mm
04:44 15.6 °C 12 °C 1002.9 hPa West 8 km/h 20.9 km/h 79% 0 mm
04:49 15.7 °C 11.8 °C 1002.9 hPa West 6.4 km/h 20.9 km/h 78% 0 mm
04:55 15.7 °C 11.8 °C 1002.9 hPa West 6.4 km/h 20.9 km/h 78% 0 mm
04:59 15.6 °C 11.8 °C 1002.9 hPa West 6.4 km/h 20.9 km/h 78% 0 mm
05:05 15.5 °C 11.7 °C 1002.9 hPa WNW 11.3 km/h 20.9 km/h 78% 0 mm
05:09 15.4 °C 11.4 °C 1002.9 hPa WNW 9.7 km/h 20.9 km/h 77% 0 mm
05:14 15.3 °C 11.3 °C 1003.3 hPa WNW 4.8 km/h 17.7 km/h 77% 0 mm
05:19 15.3 °C 11.5 °C 1003.3 hPa WNW 4.8 km/h 16.1 km/h 78% 0 mm
05:25 15.3 °C 11.5 °C 1003.3 hPa WNW 3.2 km/h 14.5 km/h 78% 0 mm
05:29 15.4 °C 11.6 °C 1003.3 hPa WNW 6.4 km/h 19.3 km/h 78% 0 mm
05:35 15.4 °C 11.6 °C 1003.3 hPa West 4.8 km/h 19.3 km/h 78% 0 mm
05:39 15.4 °C 11.4 °C 1003.3 hPa WNW 11.3 km/h 32.2 km/h 77% 0 mm
05:44 15.7 °C 11.3 °C 1003.3 hPa West 14.5 km/h 32.2 km/h 75% 0 mm
05:49 15.7 °C 11.3 °C 1003.3 hPa WNW 9.7 km/h 29 km/h 75% 0 mm
05:54 15.6 °C 11 °C 1003.3 hPa West 8 km/h 22.5 km/h 74% 0 mm
05:59 15.6 °C 10.9 °C 1003.3 hPa West 9.7 km/h 27.4 km/h 74% 0 mm
06:04 15.5 °C 11.3 °C 1003.3 hPa WSW 9.7 km/h 27.4 km/h 76% 0 mm
06:09 15.4 °C 10.8 °C 1003.3 hPa West 11.3 km/h 24.1 km/h 74% 0 mm
06:14 15.3 °C 10.7 °C 1003.3 hPa West 12.9 km/h 24.1 km/h 74% 0 mm
06:20 15.2 °C 10.8 °C 1003.3 hPa WSW 11.3 km/h 32.2 km/h 75% 0 mm
06:29 15 °C 10.8 °C 1003.3 hPa WNW 9.7 km/h 24.1 km/h 76% 0 mm
06:34 15 °C 10.8 °C 1003.3 hPa WSW 4.8 km/h 19.3 km/h 76% 0 mm
06:39 14.8 °C 10.4 °C 1003.3 hPa West 6.4 km/h 20.9 km/h 75% 0 mm
06:44 14.8 °C 10.4 °C 1003.3 hPa WSW 9.7 km/h 20.9 km/h 75% 0 mm
06:50 14.8 °C 10.4 °C 1003.3 hPa West 11.3 km/h 30.6 km/h 75% 0 mm
06:55 14.8 °C 10.2 °C 1003.3 hPa WSW 1.6 km/h 30.6 km/h 74% 0 mm
07:05 14.6 °C 10 °C 1003.6 hPa West 9.7 km/h 22.5 km/h 74% 0 mm
07:09 14.7 °C 10.1 °C 1003.6 hPa West 8 km/h 27.4 km/h 74% 0 mm
07:15 14.7 °C 10.1 °C 1003.6 hPa WNW 6.4 km/h 27.4 km/h 74% 0 mm
07:19 14.6 °C 10 °C 1003.6 hPa West 8 km/h 24.1 km/h 74% 0 mm
07:25 14.6 °C 10 °C 1003.9 hPa West 6.4 km/h 22.5 km/h 74% 0 mm
07:29 14.7 °C 9.9 °C 1003.9 hPa WNW 14.5 km/h 25.7 km/h 73% 0 mm
07:34 14.8 °C 9.8 °C 1003.9 hPa West 8 km/h 25.7 km/h 72% 0 mm
07:39 14.8 °C 9.8 °C 1003.9 hPa West 14.5 km/h 32.2 km/h 72% 0 mm
07:44 14.8 °C 10 °C 1004.3 hPa West 12.9 km/h 32.2 km/h 73% 0 mm
07:49 14.8 °C 10.1 °C 1003.9 hPa West 9.7 km/h 35.4 km/h 73% 0 mm
07:54 14.8 °C 10 °C 1004.3 hPa West 12.9 km/h 35.4 km/h 73% 0 mm
07:59 14.7 °C 10.3 °C 1004.3 hPa West 9.7 km/h 27.4 km/h 75% 0 mm
08:04 14.7 °C 10.1 °C 1004.3 hPa WNW 12.9 km/h 27.4 km/h 74% 0 mm
08:09 14.7 °C 10.1 °C 1004.3 hPa West 12.9 km/h 25.7 km/h 74% 0 mm
08:14 14.7 °C 10.3 °C 1004.6 hPa West 11.3 km/h 25.7 km/h 75% 0 mm
08:19 14.8 °C 10.7 °C 1004.6 hPa West 9.7 km/h 25.7 km/h 76% 0 mm
08:24 14.8 °C 10.6 °C 1004.6 hPa WNW 11.3 km/h 24.1 km/h 76% 0 mm
08:29 14.9 °C 10.9 °C 1005 hPa WNW 12.9 km/h 30.6 km/h 77% 0 mm
08:34 14.9 °C 10.9 °C 1005 hPa WNW 11.3 km/h 30.6 km/h 77% 0 mm
08:39 14.9 °C 10.9 °C 1005 hPa WSW 9.7 km/h 24.1 km/h 77% 0 mm
08:44 14.9 °C 11.3 °C 1005 hPa WNW 11.3 km/h 24.1 km/h 79% 0 mm
08:49 14.9 °C 11.2 °C 1005 hPa West 3.2 km/h 24.1 km/h 78% 0 mm
08:54 15 °C 11.2 °C 1005 hPa West 9.7 km/h 24.1 km/h 78% 0 mm
08:59 15 °C 11.4 °C 1004.6 hPa WSW 4.8 km/h 24.1 km/h 79% 0 mm
09:04 15 °C 11.2 °C 1004.6 hPa West 11.3 km/h 24.1 km/h 78% 0 mm
09:09 15 °C 11.2 °C 1005 hPa WSW 12.9 km/h 24.1 km/h 78% 0 mm
09:14 15.1 °C 11.3 °C 1005 hPa SW 8 km/h 22.5 km/h 78% 0 mm
09:19 15.2 °C 11.6 °C 1005 hPa West 11.3 km/h 24.1 km/h 79% 0 mm
09:25 15.8 °C 12 °C 1005 hPa WSW 12.9 km/h 30.6 km/h 78% 0 mm
09:29 16.5 °C 12.4 °C 1005.3 hPa WSW 6.4 km/h 30.6 km/h 77% 0 mm
09:35 16.6 °C 11.8 °C 1005.3 hPa West 11.3 km/h 24.1 km/h 73% 0 mm
09:44 17.3 °C 12.6 °C 1005.6 hPa West 9.7 km/h 27.4 km/h 74% 0 mm
09:49 17.4 °C 12.1 °C 1005.6 hPa West 11.3 km/h 35.4 km/h 71% 0 mm
09:54 17.1 °C 12.2 °C 1006 hPa West 11.3 km/h 35.4 km/h 73% 0 mm
09:59 16.9 °C 12.3 °C 1006 hPa West 17.7 km/h 29 km/h 74% 0 mm
10:04 17.1 °C 12.2 °C 1006 hPa WSW 14.5 km/h 29 km/h 73% 0 mm
10:09 17.1 °C 12.2 °C 1006.3 hPa West 9.7 km/h 30.6 km/h 73% 0 mm
10:14 17.1 °C 12.6 °C 1006.3 hPa WNW 14.5 km/h 30.6 km/h 75% 0 mm
10:19 17.1 °C 12.2 °C 1006.3 hPa West 12.9 km/h 27.4 km/h 73% 0 mm
10:25 17.3 °C 12.9 °C 1006 hPa West 12.9 km/h 35.4 km/h 75% 0 mm
10:30 17.8 °C 13.3 °C 1006 hPa WNW 11.3 km/h 35.4 km/h 75% 0 mm
10:34 18.2 °C 13.1 °C 1006.3 hPa WNW 14.5 km/h 25.7 km/h 72% 0 mm
10:39 17.6 °C 12.2 °C 1006.3 hPa WNW 9.7 km/h 33.8 km/h 71% 0 mm
10:44 16.9 °C 11.9 °C 1006.3 hPa WNW 16.1 km/h 33.8 km/h 72% 0 mm
10:49 16.7 °C 12.2 °C 1006.3 hPa WNW 9.7 km/h 32.2 km/h 75% 0 mm
10:54 16.8 °C 12.6 °C 1006.3 hPa WNW 6.4 km/h 22.5 km/h 76% 0 mm
10:59 17 °C 12.6 °C 1006.3 hPa WNW 4.8 km/h 14.5 km/h 75% 0 mm
11:04 17.3 °C 12.6 °C 1006.3 hPa West 9.7 km/h 24.1 km/h 74% 0 mm
11:09 17.6 °C 12.9 °C 1006.7 hPa WNW 8 km/h 24.1 km/h 74% 0 mm
11:14 17.8 °C 12.7 °C 1006.7 hPa WNW 11.3 km/h 24.1 km/h 72% 0 mm
11:19 18.1 °C 12.6 °C 1006.7 hPa WNW 8 km/h 24.1 km/h 70% 0 mm
11:24 18.4 °C 13.4 °C 1006.7 hPa West 8 km/h 24.1 km/h 73% 0 mm
11:30 18.7 °C 13.5 °C 1006.7 hPa West 8 km/h 24.1 km/h 72% 0 mm
11:39 19.4 °C 13.8 °C 1006.3 hPa WNW 9.7 km/h 19.3 km/h 70% 0 mm
11:44 19.3 °C 13.3 °C 1006.3 hPa WNW 8 km/h 24.1 km/h 68% 0 mm
11:49 19.1 °C 12.6 °C 1006.7 hPa NW 16.1 km/h 29 km/h 66% 0 mm
11:54 19.4 °C 13.6 °C 1006.3 hPa WNW 8 km/h 35.4 km/h 69% 0 mm
11:59 20 °C 13.9 °C 1006.3 hPa NW 9.7 km/h 35.4 km/h 68% 0 mm
12:04 20 °C 13.2 °C 1006.7 hPa WNW 14.5 km/h 30.6 km/h 65% 0 mm
12:09 19.9 °C 14.3 °C 1006.7 hPa West 8 km/h 30.6 km/h 70% 0 mm
12:14 19.9 °C 12.7 °C 1006.7 hPa NW 16.1 km/h 24.1 km/h 63% 0 mm
12:19 20 °C 13 °C 1006.3 hPa WNW 11.3 km/h 24.1 km/h 64% 0 mm
12:24 20.3 °C 14.2 °C 1006.3 hPa NW 11.3 km/h 20.9 km/h 68% 0 mm
12:29 20.6 °C 13.8 °C 1006.3 hPa NW 6.4 km/h 20.9 km/h 65% 0 mm
12:39 21.1 °C 13.5 °C 1006.3 hPa NW 6.4 km/h 19.3 km/h 62% 0 mm
12:44 21.1 °C 12.5 °C 1006.3 hPa NW 6.4 km/h 19.3 km/h 58% 0 mm
12:49 21 °C 13.4 °C 1006.3 hPa West 6.4 km/h 20.9 km/h 62% 0 mm
12:54 20.8 °C 13.8 °C 1006.3 hPa NW 6.4 km/h 20.9 km/h 64% 0 mm
13:00 20.8 °C 13.1 °C 1006.3 hPa NW 9.7 km/h 22.5 km/h 61% 0 mm
13:09 20.8 °C 13.1 °C 1006.3 hPa NW 9.7 km/h 20.9 km/h 61% 0 mm
13:14 20.9 °C 13.4 °C 1006.3 hPa NW 8 km/h 17.7 km/h 62% 0 mm
13:20 20.9 °C 12.6 °C 1006.3 hPa NW 11.3 km/h 22.5 km/h 59% 0 mm
13:29 21.1 °C 12.6 °C 1006.3 hPa NW 12.9 km/h 25.7 km/h 58% 0 mm
13:34 20.3 °C 12.3 °C 1006.3 hPa WNW 4.8 km/h 24.1 km/h 60% 0 mm
13:39 20.4 °C 12.9 °C 1006.3 hPa WNW 6.4 km/h 24.1 km/h 62% 0 mm
13:44 20.5 °C 13.2 °C 1006.3 hPa NW 12.9 km/h 20.9 km/h 63% 0 mm
13:49 20.3 °C 13.1 °C 1006.7 hPa NW 8 km/h 19.3 km/h 63% 0 mm
13:54 20.3 °C 13 °C 1006.3 hPa WNW 9.7 km/h 19.3 km/h 63% 0 mm
13:59 20 °C 12.5 °C 1006.7 hPa NW 11.3 km/h 17.7 km/h 62% 0 mm
14:04 19.7 °C 12.2 °C 1006.3 hPa WNW 9.7 km/h 22.5 km/h 62% 0 mm
14:09 20.2 °C 14.5 °C 1006.7 hPa NW 14.5 km/h 25.7 km/h 70% 0 mm
14:14 20.6 °C 12.8 °C 1006.3 hPa NW 12.9 km/h 29 km/h 61% 0 mm
14:19 20.9 °C 12.9 °C 1006.7 hPa NW 9.7 km/h 29 km/h 60% 0 mm
14:24 20.6 °C 12.6 °C 1006.7 hPa WNW 12.9 km/h 24.1 km/h 60% 0 mm
14:29 20.1 °C 12.6 °C 1006.7 hPa WNW 8 km/h 24.1 km/h 62% 0 mm
14:34 20.1 °C 13.3 °C 1006.7 hPa WNW 6.4 km/h 20.9 km/h 65% 0 mm
14:39 20.7 °C 13.9 °C 1006.7 hPa WNW 8 km/h 22.5 km/h 65% 0 mm
14:44 21.4 °C 14.1 °C 1006.7 hPa WNW 11.3 km/h 22.5 km/h 63% 0 mm
14:49 21.2 °C 12.9 °C 1006.7 hPa WNW 4.8 km/h 24.1 km/h 59% 0 mm
14:54 21.3 °C 13.2 °C 1006.7 hPa WNW 11.3 km/h 24.1 km/h 60% 0 mm
15:00 21.3 °C 12.9 °C 1006.7 hPa NW 9.7 km/h 22.5 km/h 59% 0 mm
15:09 20.2 °C 12.4 °C 1006.7 hPa WNW 8 km/h 20.9 km/h 61% 0 mm
15:14 20.3 °C 12 °C 1006.7 hPa NW 12.9 km/h 25.7 km/h 59% 0 mm
15:19 21.2 °C 13.1 °C 1006.7 hPa WNW 9.7 km/h 25.7 km/h 60% 0 mm
15:24 21.7 °C 13.9 °C 1006.7 hPa NW 4.8 km/h 20.9 km/h 61% 0 mm
15:29 21.4 °C 13.4 °C 1006.7 hPa NW 8 km/h 17.7 km/h 60% 0 mm
15:34 21.6 °C 13.7 °C 1006.7 hPa NW 6.4 km/h 22.5 km/h 61% 0 mm
15:39 21.8 °C 14.7 °C 1006.7 hPa NW 4.8 km/h 22.5 km/h 64% 0 mm
15:44 22.3 °C 13.7 °C 1007 hPa WNW 8 km/h 14.5 km/h 58% 0 mm
15:49 22.8 °C 14.4 °C 1007 hPa NNW 1.6 km/h 14.5 km/h 59% 0 mm
15:54 22.6 °C 13.1 °C 1007 hPa NW 11.3 km/h 22.5 km/h 55% 0 mm
15:59 22.3 °C 13.1 °C 1007 hPa NW 8 km/h 22.5 km/h 56% 0 mm
16:04 21.9 °C 12.2 °C 1007 hPa WNW 17.7 km/h 27.4 km/h 54% 0 mm
16:09 21.8 °C 13.2 °C 1007 hPa NW 4.8 km/h 27.4 km/h 58% 0 mm
16:14 21.9 °C 13.3 °C 1007 hPa NW 6.4 km/h 22.5 km/h 58% 0 mm
16:19 22 °C 13.1 °C 1007 hPa NW 9.7 km/h 19.3 km/h 57% 0 mm
16:24 21.9 °C 13.1 °C 1007 hPa NW 3.2 km/h 17.7 km/h 57% 0 mm
16:29 22.2 °C 14.1 °C 1007 hPa NW 1.6 km/h 17.7 km/h 60% 0 mm
16:34 22 °C 13.1 °C 1007 hPa Calm   12.9 km/h 57% 0 mm
16:39 22.2 °C 13.3 °C 1007 hPa NNW 4.8 km/h 17.7 km/h 57% 0 mm
16:44 22.3 °C 13.2 °C 1007 hPa NW 4.8 km/h 17.7 km/h 56% 0 mm
16:49 22.3 °C 12.9 °C 1007.3 hPa WNW 8 km/h 17.7 km/h 55% 0 mm
16:54 22.3 °C 12.6 °C 1007.3 hPa WNW 8 km/h 17.7 km/h 54% 0 mm
16:59 22.3 °C 12.6 °C 1007.3 hPa NNW 3.2 km/h 17.7 km/h 54% 0 mm
17:04 22.1 °C 12.4 °C 1007.3 hPa NW 6.4 km/h 20.9 km/h 54% 0 mm
17:09 22.1 °C 12.7 °C 1007.3 hPa NW 8 km/h 20.9 km/h 55% 0 mm
17:14 21.6 °C 11.9 °C 1007.3 hPa WNW 11.3 km/h 17.7 km/h 54% 0 mm
17:19 20.8 °C 11.4 °C 1007.3 hPa WNW 8 km/h 19.3 km/h 55% 0 mm
17:24 20.2 °C 11.7 °C 1007.7 hPa NW 4.8 km/h 19.3 km/h 58% 0 mm
17:29 19.6 °C 11.1 °C 1007.3 hPa WNW 9.7 km/h 22.5 km/h 58% 0 mm
17:35 19.3 °C 12.3 °C 1007.3 hPa NW 1.6 km/h 22.5 km/h 64% 0 mm
17:39 18.9 °C 11.8 °C 1007.3 hPa NW 1.6 km/h 12.9 km/h 63% 0 mm
17:44 18.7 °C 11.9 °C 1007.3 hPa WNW 1.6 km/h 11.3 km/h 65% 0 mm
17:49 18 °C 12.7 °C 1008.4 hPa NW 14.5 km/h 25.7 km/h 71% 1.3 mm
17:54 16.7 °C 12.4 °C 1008.4 hPa NW 1.6 km/h 25.7 km/h 76% 2 mm
17:59 15.8 °C 12.4 °C 1008.7 hPa WNW 1.6 km/h 24.1 km/h 80% 2.3 mm
18:04 15.3 °C 12.4 °C 1008.4 hPa WNW 3.2 km/h 14.5 km/h 83% 2.5 mm
18:09 15 °C 12.3 °C 1008.4 hPa Calm   8 km/h 84% 3 mm
18:14 14.8 °C 12.1 °C 1008.4 hPa Calm   8 km/h 84% 3 mm
18:19 14.7 °C 12.2 °C 1008.4 hPa Calm   8 km/h 85% 3 mm
18:24 14.7 °C 12.5 °C 1008.4 hPa Calm   1.6 km/h 87% 3 mm
18:29 14.6 °C 12.4 °C 1008.7 hPa Calm   8 km/h 87% 3 mm
18:34 14.4 °C 12.1 °C 1008.7 hPa WSW 1.6 km/h 11.3 km/h 86% 3.3 mm
18:39 14.3 °C 12 °C 1008.7 hPa WNW 3.2 km/h 16.1 km/h 86% 3.3 mm
18:44 14.3 °C 12.2 °C 1008.7 hPa WNW 1.6 km/h 16.1 km/h 87% 3.6 mm
18:49 14.3 °C 12.2 °C 1008.4 hPa Calm   9.7 km/h 87% 3.6 mm
18:55 14.3 °C 12.4 °C 1008.4 hPa Calm   8 km/h 88% 3.6 mm
19:04 14.3 °C 12.4 °C 1008.7 hPa West 1.6 km/h 16.1 km/h 88% 3.6 mm
19:09 14.3 °C 12.2 °C 1008.7 hPa WSW 3.2 km/h 16.1 km/h 87% 3.6 mm
19:14 14.2 °C 12.1 °C 1008.7 hPa WSW 1.6 km/h 9.7 km/h 87% 3.6 mm
19:19 14.2 °C 12.1 °C 1008.7 hPa WSW 3.2 km/h 14.5 km/h 87% 3.6 mm
19:25 14.2 °C 11.8 °C 1008.7 hPa Calm   14.5 km/h 86% 3.6 mm
19:29 14.2 °C 12.1 °C 1008.7 hPa Calm   8 km/h 87% 3.6 mm
19:34 14.1 °C 11.8 °C 1008.7 hPa Calm   9.7 km/h 86% 3.6 mm
19:39 14.1 °C 11.8 °C 1008.7 hPa WSW 1.6 km/h 11.3 km/h 86% 3.6 mm
19:44 14 °C 11.5 °C 1008.7 hPa Calm   11.3 km/h 85% 3.6 mm
19:49 13.9 °C 11.4 °C 1008.7 hPa SW 1.6 km/h 8 km/h 85% 3.6 mm
19:54 13.8 °C 11.3 °C 1009 hPa Calm   8 km/h 85% 3.6 mm
19:59 13.8 °C 11.5 °C 1009 hPa Calm   8 km/h 86% 3.6 mm
20:05 13.7 °C 11.4 °C 1009 hPa Calm   8 km/h 86% 3.6 mm
20:14 13.7 °C 11.4 °C 1009.4 hPa Calm   12.9 km/h 86% 3.6 mm
20:19 13.8 °C 11.5 °C 1009.4 hPa Calm   12.9 km/h 86% 3.6 mm
20:24 13.8 °C 11.6 °C 1009.4 hPa Calm   8 km/h 86% 3.6 mm
20:29 13.8 °C 11.7 °C 1009.7 hPa Calm   6.4 km/h 87% 3.6 mm
20:34 13.9 °C 11.8 °C 1009.7 hPa Calm   6.4 km/h 87% 3.6 mm
20:39 13.9 °C 11.8 °C 1009.7 hPa SSW 1.6 km/h 6.4 km/h 87% 3.6 mm
20:44 13.9 °C 11.8 °C 1009.7 hPa Calm   6.4 km/h 87% 3.6 mm
20:49 13.9 °C 11.8 °C 1010 hPa Calm   4.8 km/h 87% 3.6 mm
20:54 13.8 °C 11.7 °C 1010 hPa Calm   6.4 km/h 87% 3.6 mm
20:59 13.7 °C 11.6 °C 1010 hPa Calm   6.4 km/h 87% 3.6 mm
21:04 13.6 °C 11.4 °C 1010 hPa Calm   3.2 km/h 87% 3.6 mm
21:09 13.4 °C 11.3 °C 1010 hPa SSW 1.6 km/h 8 km/h 87% 3.6 mm
21:14 13.4 °C 11.3 °C 1010 hPa SSW 1.6 km/h 8 km/h 87% 3.6 mm
21:19 13.4 °C 11.3 °C 1010 hPa Calm   8 km/h 87% 3.6 mm
21:24 13.4 °C 11.3 °C 1010 hPa Calm   8 km/h 87% 3.6 mm
21:29 13.4 °C 11.3 °C 1010 hPa SW 3.2 km/h 8 km/h 87% 3.6 mm
21:34 13.5 °C 11.4 °C 1010 hPa SW 1.6 km/h 9.7 km/h 87% 3.6 mm
21:39 13.5 °C 11.4 °C 1010 hPa Calm   9.7 km/h 87% 3.6 mm
21:44 13.4 °C 11.3 °C 1010.4 hPa Calm   12.9 km/h 87% 3.6 mm
21:49 13.4 °C 11.3 °C 1010.4 hPa WSW 1.6 km/h 12.9 km/h 87% 3.6 mm
21:54 13.4 °C 11.2 °C 1010.4 hPa WSW 1.6 km/h 11.3 km/h 86% 3.6 mm
21:59 13.5 °C 11.4 °C 1010.4 hPa Calm   11.3 km/h 87% 3.6 mm
22:05 13.5 °C 11.2 °C 1010 hPa Calm   11.3 km/h 86% 3.6 mm
22:14 13.4 °C 11.3 °C 1010 hPa Calm   9.7 km/h 87% 3.6 mm
22:19 13.2 °C 10.9 °C 1010 hPa Calm   8 km/h 86% 3.6 mm
22:25 13.2 °C 11.1 °C 1010 hPa Calm   8 km/h 87% 3.6 mm
22:34 13.1 °C 11 °C 1010 hPa Calm   1.6 km/h 87% 3.6 mm
22:39 12.9 °C 10.8 °C 1010.4 hPa Calm   1.6 km/h 87% 3.6 mm
22:44 12.7 °C 10.6 °C 1010.4 hPa Calm   4.8 km/h 87% 3.6 mm
22:49 12.6 °C 10.4 °C 1010.4 hPa Calm   4.8 km/h 87% 3.6 mm
22:54 12.4 °C 10.3 °C 1010.4 hPa Calm   1.6 km/h 87% 3.6 mm
22:59 12.2 °C 10.1 °C 1010.4 hPa Calm   1.6 km/h 87% 3.6 mm
23:04 12.1 °C 10.2 °C 1010.4 hPa Calm   8 km/h 88% 3.6 mm
23:09 12.1 °C 10.3 °C 1010.4 hPa Calm   8 km/h 89% 3.6 mm
23:14 12.2 °C 10.4 °C 1010.4 hPa WSW 3.2 km/h 9.7 km/h 89% 3.6 mm
23:19 12.3 °C 10.5 °C 1010.4 hPa WSW 1.6 km/h 9.7 km/h 89% 3.6 mm
23:24 12.4 °C 10.6 °C 1010.4 hPa Calm   8 km/h 89% 3.6 mm
23:29 12.4 °C 10.7 °C 1010.4 hPa Calm   8 km/h 89% 3.6 mm
23:34 12.4 °C 10.4 °C 1010.7 hPa Calm   4.8 km/h 88% 3.6 mm
23:39 12.3 °C 10.4 °C 1010.7 hPa Calm   1.6 km/h 88% 3.6 mm
23:44 12.2 °C 10.2 °C 1010.7 hPa Calm   1.6 km/h 88% 3.6 mm
23:49 11.9 °C 10 °C 1010.7 hPa Calm   3.2 km/h 88% 3.6 mm
23:54 11.8 °C 10.1 °C 1010.7 hPa Calm   3.2 km/h 89% 3.6 mm
23:59 11.7 °C 9.9 °C 1010.7 hPa Calm   1.6 km/h 89% 3.6 mm
Westford Weather
Compliments of Weather Underground

 
 
Current Radar Loop:

Copyright © WestfordWeather.net 2007-2014. All rights reserved.